Time;durP1;ratioP1;P1;durP2;ratioP2;P2;SDS_P1;SDS_P2;PMS_P1;PMS_P2;Temp;Humidity;BMP_temperature;BMP_pressure;BME280_temperature;BME280_humidity;BME280_pressure;Samples;Min_cycle;Max_cycle;Signal;HPM_P1;HPM_P2
2022/09/23 00:02:12;;;;;;;;;13.75;11.00;;;;;15.55;48.20;101502.94;5055786;28;71831;-80
2022/09/23 00:04:37;;;;;;;;;11.00;10.00;;;;;15.55;48.42;101500.31;5056659;28;45314;-81
2022/09/23 00:07:03;;;;;;;;;11.75;10.50;;;;;15.54;48.45;101504.69;5055516;28;45415;-80
2022/09/23 00:09:28;;;;;;;;;11.25;9.25;;;;;15.56;48.16;101496.75;5056598;28;45412;-80
2022/09/23 00:11:54;;;;;;;;;10.75;10.00;;;;;15.54;48.64;101496.81;5056382;28;45391;-80
2022/09/23 00:14:20;;;;;;;;;13.00;11.50;;;;;15.52;48.46;101490.75;5056354;28;45343;-80
2022/09/23 00:16:46;;;;;;;;;11.00;10.00;;;;;15.46;48.32;101488.38;5056352;28;45332;-81
2022/09/23 00:19:11;;;;;;;;;10.50;8.00;;;;;15.41;48.67;101482.44;5056391;28;45309;-80
2022/09/23 00:21:36;;;;;;;;;12.50;9.50;;;;;15.36;48.71;101484.38;5056479;28;45427;-80
2022/09/23 00:24:02;;;;;;;;;12.25;11.00;;;;;15.33;48.61;101479.25;5054884;28;63031;-80
2022/09/23 00:26:27;;;;;;;;;12.00;10.00;;;;;15.32;48.97;101488.03;5056366;28;45408;-80
2022/09/23 00:28:52;;;;;;;;;11.25;9.75;;;;;15.27;49.13;101477.72;5056057;28;45327;-80
2022/09/23 00:31:23;;;;;;;;;14.75;10.25;;;;;15.23;49.42;101474.34;5056185;28;45312;-80
2022/09/23 00:34:00;;;;;;;;;11.25;10.00;;;;;15.18;49.41;101470.19;5083300;27;45379;-80
2022/09/23 00:36:26;;;;;;;;;9.75;9.25;;;;;15.13;49.58;101470.34;5078710;27;45759;-80
2022/09/23 00:38:52;;;;;;;;;10.25;8.75;;;;;15.03;50.24;101469.81;5078663;27;45307;-80
2022/09/23 00:41:18;;;;;;;;;11.00;10.75;;;;;14.95;50.07;101481.47;5096653;27;45285;-80
2022/09/23 00:43:54;;;;;;;;;15.50;9.00;;;;;14.89;50.30;101477.31;5096557;27;45301;-80
2022/09/23 00:46:22;;;;;;;;;10.25;10.00;;;;;14.82;50.48;101470.56;5096865;27;45521;-80
2022/09/23 00:48:52;;;;;;;;;15.75;10.75;;;;;14.78;50.61;101468.97;5078300;27;46233;-80
2022/09/23 00:51:22;;;;;;;;;10.75;10.75;;;;;14.74;50.93;101475.25;5063206;27;45653;-81
2022/09/23 00:53:50;;;;;;;;;10.75;10.75;;;;;14.67;50.67;101472.84;5054994;28;45412;-80
2022/09/23 00:56:15;;;;;;;;;11.50;11.00;;;;;14.62;50.96;101469.50;5054556;28;45487;-80
2022/09/23 00:58:42;;;;;;;;;11.50;10.00;;;;;14.60;51.16;101470.44;5054657;28;47014;-80
2022/09/23 01:01:08;;;;;;;;;8.75;8.75;;;;;14.58;51.58;101467.03;5054693;28;45337;-80
2022/09/23 01:03:33;;;;;;;;;11.25;10.00;;;;;14.55;51.18;101472.38;5056083;28;45397;-80
2022/09/23 01:05:58;;;;;;;;;11.00;10.00;;;;;14.55;51.25;101470.59;5054745;28;69315;-80
2022/09/23 01:08:25;;;;;;;;;11.75;9.25;;;;;14.51;51.31;101469.00;5055061;28;63616;-80
2022/09/23 01:11:15;;;;;;;;;14.75;12.00;;;;;14.46;51.71;101469.13;5055441;28;45419;-80
2022/09/23 01:14:02;;;;;;;;;10.75;10.75;;;;;14.44;51.81;101465.72;5054538;28;45280;-80
2022/09/23 01:16:32;;;;;;;;;10.75;9.25;;;;;14.43;51.92;101456.16;5055618;28;45412;-80
2022/09/23 01:19:08;;;;;;;;;13.50;13.25;;;;;14.40;51.85;101458.88;5054401;28;47183;-80
2022/09/23 01:22:00;;;;;;;;;14.00;11.00;;;;;14.38;51.56;101442.34;5054098;28;45840;-80
2022/09/23 01:24:44;;;;;;;;;15.75;12.50;;;;;14.39;52.19;101448.44;5047628;28;45421;-80
2022/09/23 01:27:33;;;;;;;;;19.00;11.25;;;;;14.36;52.24;101436.31;5055352;28;45429;-80
2022/09/23 01:30:26;;;;;;;;;13.25;9.50;;;;;14.36;52.27;101440.66;5054343;28;45422;-80
2022/09/23 01:33:09;;;;;;;;;16.50;14.25;;;;;14.32;52.60;101434.72;5066054;27;45365;-81
2022/09/23 01:35:57;;;;;;;;;10.50;10.00;;;;;14.28;52.16;101433.94;5079845;27;45619;-80
2022/09/23 01:38:23;;;;;;;;;17.50;12.25;;;;;14.30;52.85;101440.00;5099959;27;45349;-80
2022/09/23 01:41:11;;;;;;;;;14.00;10.75;;;;;14.28;52.58;101440.94;5099144;27;46274;-80
2022/09/23 01:43:53;;;;;;;;;14.50;11.50;;;;;14.29;52.85;101438.25;5081390;27;45341;-80
2022/09/23 01:46:26;;;;;;;;;13.50;11.50;;;;;14.28;52.81;101441.81;5081576;27;45375;-80
2022/09/23 01:49:25;;;;;;;;;8.50;7.25;;;;;14.26;52.84;101441.00;5081714;27;45478;-80
2022/09/23 01:51:58;;;;;;;;;14.50;12.50;;;;;14.24;52.75;101447.19;5078895;28;45522;-80
2022/09/23 01:54:37;;;;;;;;;16.25;14.50;;;;;14.23;53.09;101448.09;5060665;28;45791;-80
2022/09/23 01:57:15;;;;;;;;;15.75;13.25;;;;;14.19;53.10;101444.72;5060941;28;45407;-80
2022/09/23 01:59:46;;;;;;;;;15.75;13.75;;;;;14.18;53.05;101443.00;5061068;28;45455;-80
2022/09/23 02:02:27;;;;;;;;;14.00;12.25;;;;;14.17;53.63;101441.31;5060573;28;45291;-80
2022/09/23 02:05:20;;;;;;;;;15.75;12.25;;;;;14.16;53.54;101441.34;5060791;28;45922;-80
2022/09/23 02:07:52;;;;;;;;;13.25;12.50;;;;;14.17;53.96;101438.69;5078939;28;45407;-80
2022/09/23 02:10:23;;;;;;;;;19.00;14.75;;;;;14.19;53.65;101429.03;5060152;28;45583;-80
2022/09/23 02:12:51;;;;;;;;;21.00;16.75;;;;;14.21;53.58;101428.94;5060615;28;45570;-80
2022/09/23 02:15:23;;;;;;;;;18.75;16.25;;;;;14.23;53.91;101435.84;5060153;28;45270;-80
2022/09/23 02:17:55;;;;;;;;;17.25;17.25;;;;;14.21;53.49;101424.59;5078640;28;45402;-80
2022/09/23 02:20:29;;;;;;;;;19.75;15.25;;;;;14.20;53.65;101429.88;5060715;28;45380;-80
2022/09/23 02:23:02;;;;;;;;;17.50;15.75;;;;;14.21;54.10;101431.56;5078525;28;45577;-80
2022/09/23 02:26:04;;;;;;;;;21.50;15.50;;;;;14.22;53.60;101433.28;5078463;28;45369;-79
2022/09/23 02:29:00;;;;;;;;;18.25;16.00;;;;;14.23;54.07;101429.78;5078796;28;45353;-80
2022/09/23 02:31:44;;;;;;;;;20.50;18.00;;;;;14.24;53.90;101426.22;5078497;28;45215;-80
2022/09/23 02:34:25;;;;;;;;;17.00;15.50;;;;;14.23;54.04;101425.38;5078271;28;45426;-80
2022/09/23 02:37:03;;;;;;;;;19.00;15.00;;;;;14.22;54.49;101422.81;5077002;28;45337;-80
2022/09/23 02:39:37;;;;;;;;;18.50;16.50;;;;;14.20;54.44;101414.16;5076814;28;45418;-80
2022/09/23 02:42:11;;;;;;;;;19.75;16.00;;;;;14.19;54.43;101418.53;5076892;28;45450;-80
2022/09/23 02:44:37;;;;;;;;;20.75;17.00;;;;;14.18;54.29;101411.59;5076788;28;46472;-80
2022/09/23 02:47:02;;;;;;;;;17.25;14.00;;;;;14.20;54.37;101412.38;5077624;27;45350;-80
2022/09/23 02:49:29;;;;;;;;;20.75;16.75;;;;;14.23;54.65;101412.28;5076735;28;45356;-80
2022/09/23 02:51:56;;;;;;;;;19.00;15.75;;;;;14.23;54.49;101420.16;5077876;28;45416;-80
2022/09/23 02:54:25;;;;;;;;;19.50;16.50;;;;;14.23;53.96;101403.59;5059773;28;46755;-80
2022/09/23 02:56:52;;;;;;;;;19.50;15.00;;;;;14.25;54.42;101407.84;5059893;28;45783;-80
2022/09/23 02:59:20;;;;;;;;;13.50;13.25;;;;;14.26;54.68;101406.09;5077981;28;45412;-80
2022/09/23 03:01:55;;;;;;;;;15.75;15.00;;;;;14.26;54.44;101396.50;5060236;28;45365;-80
2022/09/23 03:04:49;;;;;;;;;16.75;15.25;;;;;14.26;54.61;101399.09;5077803;28;45882;-80
2022/09/23 03:07:25;;;;;;;;;16.75;14.00;;;;;14.23;55.00;101398.34;5077670;28;45915;-80
2022/09/23 03:10:27;;;;;;;;;18.25;14.00;;;;;14.19;54.30;101400.22;5078136;28;45379;-80
2022/09/23 03:13:12;;;;;;;;;18.75;14.75;;;;;14.21;54.40;101395.78;5059686;28;45391;-80
2022/09/23 03:15:47;;;;;;;;;18.25;14.25;;;;;14.24;54.68;101394.81;5059419;28;45520;-80
2022/09/23 03:18:34;;;;;;;;;16.00;13.50;;;;;14.22;54.48;101394.00;5077841;28;45826;-80
2022/09/23 03:21:07;;;;;;;;;14.75;14.00;;;;;14.19;54.92;101402.84;5042548;28;45336;-80
2022/09/23 03:23:35;;;;;;;;;15.00;11.00;;;;;14.18;54.99;101406.34;5059522;28;45424;-80
2022/09/23 03:26:07;;;;;;;;;16.50;13.00;;;;;14.20;54.97;101401.06;5059450;28;46591;-80
2022/09/23 03:28:35;;;;;;;;;16.75;15.50;;;;;14.19;55.14;101396.72;5059621;28;45802;-80
2022/09/23 03:31:00;;;;;;;;;16.75;13.00;;;;;14.17;55.03;101407.28;5059502;28;45406;-80
2022/09/23 03:33:29;;;;;;;;;12.25;12.25;;;;;14.15;55.32;101401.19;5065370;28;69878;-80
2022/09/23 03:38:49;;;;;;;;;14.25;12.75;;;;;14.12;55.34;101412.66;5076501;28;45859;-80
2022/09/23 03:41:22;;;;;;;;;14.75;13.50;;;;;14.13;55.77;101408.25;5076216;28;45736;-80
2022/09/23 03:43:47;;;;;;;;;15.75;14.00;;;;;14.15;55.48;101409.06;5076435;28;45342;-80
2022/09/23 03:46:15;;;;;;;;;17.50;11.00;;;;;14.17;55.55;101411.63;5076084;28;45501;-80
2022/09/23 03:48:40;;;;;;;;;11.00;11.00;;;;;14.14;55.58;101415.22;5075995;28;45415;-80
2022/09/23 03:51:22;;;;;;;;;14.50;11.75;;;;;14.12;55.26;101403.94;5075764;28;69149;-80
2022/09/23 03:53:51;;;;;;;;;15.75;12.25;;;;;14.14;55.49;101408.22;5059192;28;45393;-80
2022/09/23 03:56:16;;;;;;;;;13.25;11.25;;;;;14.16;55.36;101407.31;5076873;28;45648;-80
2022/09/23 03:58:42;;;;;;;;;21.25;14.00;;;;;14.18;55.27;101410.75;5040707;28;45352;-80
2022/09/23 04:01:08;;;;;;;;;14.00;11.75;;;;;14.14;55.31;101409.97;5077183;28;45352;-80
2022/09/23 04:03:33;;;;;;;;;17.75;13.75;;;;;14.10;55.80;101413.63;5058800;28;45417;-80
2022/09/23 04:05:58;;;;;;;;;16.25;13.25;;;;;14.08;55.72;101410.19;5075626;28;72329;-80
2022/09/23 04:08:24;;;;;;;;;14.25;11.00;;;;;14.07;55.47;101406.69;5076081;28;72820;-80
2022/09/23 04:10:49;;;;;;;;;17.75;13.50;;;;;14.06;55.67;101406.75;5076030;28;61065;-80
2022/09/23 04:13:15;;;;;;;;;17.75;12.75;;;;;14.05;55.79;101418.13;5076945;28;45576;-80
2022/09/23 04:15:40;;;;;;;;;15.25;12.50;;;;;14.02;55.37;101411.25;5076572;28;46263;-80
2022/09/23 04:18:05;;;;;;;;;15.50;14.00;;;;;14.02;55.71;101413.00;5076778;28;45388;-80
2022/09/23 04:20:31;;;;;;;;;21.25;17.00;;;;;14.01;55.49;101408.69;5075904;28;61840;-80
2022/09/23 04:22:56;;;;;;;;;13.75;12.00;;;;;14.01;55.84;101412.13;5075593;28;70577;-80
2022/09/23 04:25:21;;;;;;;;;19.25;14.50;;;;;13.99;55.62;101411.34;5076665;28;45414;-81
2022/09/23 04:27:47;;;;;;;;;15.50;14.00;;;;;13.97;55.68;101404.41;5057754;28;69344;-81
2022/09/23 04:30:12;;;;;;;;;19.00;16.25;;;;;13.94;56.11;101405.38;5075895;28;64658;-81
2022/09/23 04:32:38;;;;;;;;;17.75;17.00;;;;;13.92;56.27;101410.66;5076332;28;45443;-81
2022/09/23 04:35:04;;;;;;;;;16.00;15.50;;;;;13.90;56.20;101407.25;5076181;27;45584;-81
2022/09/23 04:37:29;;;;;;;;;21.00;14.00;;;;;13.87;56.14;101401.25;5076431;27;45871;-80
2022/09/23 04:39:55;;;;;;;;;15.00;15.00;;;;;13.86;56.25;101400.41;5076050;27;60794;-81
2022/09/23 04:42:20;;;;;;;;;26.25;17.50;;;;;13.88;56.34;101398.59;5076266;28;45468;-81
2022/09/23 04:44:46;;;;;;;;;21.00;16.25;;;;;13.88;56.49;101398.59;5076203;27;46484;-81
2022/09/23 04:47:11;;;;;;;;;20.25;17.75;;;;;13.84;56.54;101401.38;5075251;28;73543;-80
2022/09/23 04:49:37;;;;;;;;;16.75;15.25;;;;;13.79;56.82;101396.28;5075787;27;45580;-80
2022/09/23 04:52:04;;;;;;;;;17.75;16.25;;;;;13.75;57.18;101394.66;5076208;28;45582;-80
2022/09/23 04:54:30;;;;;;;;;19.75;15.50;;;;;13.71;57.15;101396.53;5076064;28;46601;-80
2022/09/23 04:56:55;;;;;;;;;17.00;15.25;;;;;13.69;57.16;101394.88;5075904;28;49828;-81
2022/09/23 04:59:20;;;;;;;;;20.25;17.25;;;;;13.69;57.47;101390.47;5076179;28;45187;-81
2022/09/23 05:01:46;;;;;;;;;17.75;16.00;;;;;13.68;57.35;101390.53;5075633;28;61159;-81
2022/09/23 05:04:12;;;;;;;;;16.25;14.00;;;;;13.67;57.19;101391.41;5074737;28;70555;-81
2022/09/23 05:06:38;;;;;;;;;16.50;15.75;;;;;13.65;57.38;101383.63;5075995;28;45292;-81
2022/09/23 05:09:06;;;;;;;;;21.75;18.50;;;;;13.62;57.81;101390.72;5075248;28;60783;-81
2022/09/23 05:11:32;;;;;;;;;17.00;15.50;;;;;13.57;57.78;101387.38;5079305;28;45364;-80
2022/09/23 05:13:57;;;;;;;;;21.25;18.25;;;;;13.52;58.11;101391.00;5061303;28;46724;-81
2022/09/23 05:16:23;;;;;;;;;19.25;15.50;;;;;13.49;58.14;101385.88;5078692;28;62596;-80
2022/09/23 05:18:49;;;;;;;;;22.00;16.75;;;;;13.48;58.07;101384.16;5079411;28;45947;-80
2022/09/23 05:21:16;;;;;;;;;21.00;18.00;;;;;13.50;57.73;101381.47;5061387;28;45408;-80
2022/09/23 05:23:46;;;;;;;;;17.25;15.00;;;;;13.51;57.82;101381.44;5061128;28;47354;-80
2022/09/23 05:26:12;;;;;;;;;18.75;16.25;;;;;13.50;57.98;101373.63;5079604;28;45399;-80
2022/09/23 05:28:38;;;;;;;;;20.00;17.25;;;;;13.51;58.45;101370.13;5079706;28;45514;-80
2022/09/23 05:31:14;;;;;;;;;25.25;19.75;;;;;13.51;58.08;101372.75;5079292;28;45529;-80
2022/09/23 05:33:41;;;;;;;;;20.50;18.75;;;;;13.50;58.56;101376.25;5078694;28;45469;-80
2022/09/23 05:36:08;;;;;;;;;25.00;17.00;;;;;13.50;58.27;101377.13;5079197;27;45429;-80
2022/09/23 05:38:34;;;;;;;;;24.00;17.25;;;;;13.51;58.61;101375.34;5078168;28;45404;-80
2022/09/23 05:41:02;;;;;;;;;19.00;17.50;;;;;13.51;58.40;101377.97;5079462;28;45266;-80
2022/09/23 05:43:27;;;;;;;;;23.50;16.00;;;;;13.51;58.51;101381.44;5079131;27;46314;-80
2022/09/23 05:46:06;;;;;;;;;21.50;18.00;;;;;13.57;58.30;101384.78;5079232;28;45408;-80
2022/09/23 05:48:33;;;;;;;;;21.75;17.25;;;;;13.62;58.27;101377.66;5079289;27;45316;-80
2022/09/23 05:50:59;;;;;;;;;21.25;17.25;;;;;13.62;58.45;101378.50;5067163;28;45601;-80
2022/09/23 05:53:26;;;;;;;;;20.50;17.75;;;;;13.63;58.85;101379.34;5078978;28;45460;-80
2022/09/23 05:55:53;;;;;;;;;21.00;18.25;;;;;13.65;58.23;101381.03;5061064;28;45380;-80
2022/09/23 05:58:18;;;;;;;;;20.00;15.00;;;;;13.69;58.66;101373.94;5079100;28;45423;-80
2022/09/23 06:00:43;;;;;;;;;18.50;17.75;;;;;13.72;58.65;101376.44;5078562;28;45668;-80
2022/09/23 06:03:17;;;;;;;;;29.50;20.50;;;;;13.73;58.33;101380.78;5077950;28;69818;-80
2022/09/23 06:05:43;;;;;;;;;20.00;16.25;;;;;13.75;58.72;101381.59;5060617;28;45313;-80
2022/09/23 06:08:09;;;;;;;;;21.25;15.25;;;;;13.80;58.33;101382.28;5078736;28;45430;-80
2022/09/23 06:10:38;;;;;;;;;18.25;15.25;;;;;13.84;59.06;101378.66;5060745;28;45488;-80
2022/09/23 06:13:04;;;;;;;;;18.50;16.50;;;;;13.86;58.58;101373.38;5078736;28;45399;-80
2022/09/23 06:15:29;;;;;;;;;16.25;14.50;;;;;13.89;58.04;101362.81;5078017;28;45375;-80
2022/09/23 06:17:55;;;;;;;;;19.25;17.00;;;;;13.92;58.38;101367.94;5059847;28;62735;-80
2022/09/23 06:20:20;;;;;;;;;26.50;17.75;;;;;13.96;58.23;101372.16;5078795;28;45403;-80
2022/09/23 06:22:46;;;;;;;;;22.50;19.50;;;;;14.02;58.06;101371.09;5076415;28;67926;-80
2022/09/23 06:25:11;;;;;;;;;19.50;16.50;;;;;14.08;58.55;101376.16;5076551;28;68049;-80
2022/09/23 06:27:37;;;;;;;;;19.50;16.50;;;;;14.14;58.23;101376.78;5078545;28;45291;-80
2022/09/23 06:30:05;;;;;;;;;21.00;15.50;;;;;14.18;58.38;101374.94;5078113;28;45406;-80
2022/09/23 06:32:31;;;;;;;;;23.50;16.75;;;;;14.22;57.90;101384.38;5077952;28;46373;-80
2022/09/23 06:34:56;;;;;;;;;20.75;20.00;;;;;14.26;58.14;101379.91;5078222;27;45375;-80
2022/09/23 06:37:23;;;;;;;;;25.00;20.25;;;;;14.30;57.51;101390.25;5078526;28;45291;-80
2022/09/23 06:39:48;;;;;;;;;21.25;16.75;;;;;14.36;57.95;101398.75;5077179;28;45336;-80
2022/09/23 06:42:14;;;;;;;;;17.00;16.50;;;;;14.44;57.96;101394.97;5078104;27;45387;-80
2022/09/23 06:44:40;;;;;;;;;20.25;15.50;;;;;14.50;57.56;101393.91;5077880;27;45229;-80
2022/09/23 06:47:05;;;;;;;;;19.00;14.00;;;;;14.59;57.89;101393.63;5077173;28;65475;-80
2022/09/23 06:49:30;;;;;;;;;18.75;15.25;;;;;14.68;57.50;101390.69;5077009;28;68908;-80
2022/09/23 06:51:55;;;;;;;;;17.75;14.50;;;;;14.76;57.23;101392.19;5077121;28;68701;-80
2022/09/23 06:54:21;;;;;;;;;20.75;18.25;;;;;14.82;56.84;101397.19;5077182;28;68531;-80
2022/09/23 06:56:46;;;;;;;;;28.75;19.75;;;;;14.87;57.32;101393.47;5077109;28;63890;-80
2022/09/23 06:59:15;;;;;;;;;21.50;15.75;;;;;14.89;57.29;101391.69;5076514;28;68885;-79
2022/09/23 07:01:41;;;;;;;;;18.00;16.50;;;;;14.97;57.15;101391.41;5077605;28;45676;-80
2022/09/23 07:04:09;;;;;;;;;17.75;16.50;;;;;15.04;56.95;101390.28;5077774;28;45414;-80
2022/09/23 07:06:34;;;;;;;;;17.50;11.25;;;;;15.12;56.68;101394.34;5078138;28;45348;-79
2022/09/23 07:09:00;;;;;;;;;18.00;16.00;;;;;15.18;56.60;101391.53;5077796;28;45346;-79
2022/09/23 07:11:25;;;;;;;;;23.50;22.25;;;;;15.24;56.20;101388.66;5077387;28;45392;-79
2022/09/23 07:13:51;;;;;;;;;17.25;17.25;;;;;15.28;55.96;101383.25;5059095;28;45456;-79
2022/09/23 07:16:16;;;;;;;;;25.00;19.50;;;;;15.38;55.94;101382.88;5076159;28;45510;-80
2022/09/23 07:18:42;;;;;;;;;24.00;19.75;;;;;15.47;56.05;101382.50;5076881;28;66495;-79
2022/09/23 07:21:13;;;;;;;;;24.50;20.75;;;;;15.54;56.56;101388.38;5077220;28;48711;-79
2022/09/23 07:23:38;;;;;;;;;12.50;11.25;;;;;15.55;55.30;101375.22;5059697;28;46010;-80
2022/09/23 07:26:06;;;;;;;;;23.75;18.75;;;;;15.57;55.40;101388.28;5077435;28;45373;-81
2022/09/23 07:28:32;;;;;;;;;20.00;18.00;;;;;15.62;55.35;101378.41;5059392;28;45519;-79
2022/09/23 07:31:03;;;;;;;;;20.00;17.25;;;;;15.70;54.63;101380.75;5074064;28;46405;-80
2022/09/23 07:33:31;;;;;;;;;22.25;18.25;;;;;15.77;54.77;101377.00;5037202;27;45831;-80
2022/09/23 07:35:56;;;;;;;;;29.50;19.50;;;;;15.83;53.94;101380.22;5056605;28;45410;-81
2022/09/23 07:38:28;;;;;;;;;21.75;18.00;;;;;15.91;54.68;101387.78;5056839;28;45515;-82
2022/09/23 07:40:59;;;;;;;;;22.25;17.75;;;;;16.01;54.20;101385.63;5056410;28;46298;-81
2022/09/23 07:43:26;;;;;;;;;18.00;16.25;;;;;16.09;53.57;101391.44;5056445;28;45993;-82
2022/09/23 07:45:52;;;;;;;;;28.00;21.00;;;;;16.19;53.63;101405.03;5039144;28;45424;-81
2022/09/23 07:48:17;;;;;;;;;21.50;18.50;;;;;16.26;53.45;101398.59;5056680;28;45393;-82
2022/09/23 07:50:43;;;;;;;;;25.00;18.00;;;;;16.34;53.36;101395.66;5067232;28;74425;-81
2022/09/23 07:53:08;;;;;;;;;26.75;20.00;;;;;16.42;52.39;101402.28;5075566;28;68996;-79
2022/09/23 07:55:34;;;;;;;;;32.75;21.75;;;;;16.53;52.38;101407.09;5071830;28;46284;-79
2022/09/23 07:57:59;;;;;;;;;26.50;21.00;;;;;16.64;52.37;101407.47;5075746;28;45345;-79
2022/09/23 08:00:25;;;;;;;;;21.50;20.25;;;;;16.77;52.07;101414.81;5058419;28;46560;-79
2022/09/23 08:02:51;;;;;;;;;26.50;20.50;;;;;16.87;51.57;101416.16;5076359;28;45404;-80
2022/09/23 08:05:16;;;;;;;;;22.50;18.00;;;;;16.97;51.47;101419.22;5075783;28;67622;-79
2022/09/23 08:07:41;;;;;;;;;25.50;20.00;;;;;17.06;51.83;101417.97;5075946;28;56715;-79
2022/09/23 08:10:07;;;;;;;;;20.75;17.75;;;;;17.15;51.24;101425.44;5075497;28;70608;-79
2022/09/23 08:12:32;;;;;;;;;23.50;20.00;;;;;17.26;51.16;101428.41;5056699;27;73194;-79
2022/09/23 08:14:59;;;;;;;;;29.50;20.25;;;;;17.29;50.51;101424.78;5073832;28;45392;-79
2022/09/23 08:17:25;;;;;;;;;24.25;20.75;;;;;17.33;50.74;101421.97;5074897;28;45976;-79
2022/09/23 08:19:50;;;;;;;;;25.25;21.00;;;;;17.43;50.01;101417.09;5075785;28;46472;-79
2022/09/23 08:22:16;;;;;;;;;25.00;23.50;;;;;17.53;50.26;101422.78;5075387;28;45392;-78
2022/09/23 08:24:41;;;;;;;;;25.25;19.25;;;;;17.58;49.85;101420.81;5076027;28;45497;-78
2022/09/23 08:27:06;;;;;;;;;25.00;22.50;;;;;17.63;49.09;101420.59;5056677;28;66743;-77
2022/09/23 08:29:31;;;;;;;;;30.75;19.75;;;;;17.69;49.43;101421.13;5074994;28;68598;-77
2022/09/23 08:31:58;;;;;;;;;23.50;21.50;;;;;17.76;49.53;101432.25;5074803;28;67082;-77
2022/09/23 08:34:26;;;;;;;;;27.25;21.00;;;;;17.86;49.20;101422.97;5075634;28;45355;-77
2022/09/23 08:36:51;;;;;;;;;23.00;17.00;;;;;17.98;49.35;101417.13;5075764;28;45447;-78
2022/09/23 08:39:18;;;;;;;;;30.75;24.00;;;;;18.07;48.75;101420.22;5074826;28;67715;-78
2022/09/23 08:41:55;;;;;;;;;27.75;22.25;;;;;18.09;48.87;101429.78;5075020;28;45431;-78
2022/09/23 08:44:36;;;;;;;;;30.50;23.25;;;;;18.10;48.51;101428.84;5074867;28;45277;-79
2022/09/23 08:47:15;;;;;;;;;27.25;20.50;;;;;18.08;48.80;101428.06;5075727;28;45409;-78
2022/09/23 08:49:47;;;;;;;;;24.50;19.25;;;;;18.13;49.07;101423.41;5057425;28;45673;-78
2022/09/23 08:52:17;;;;;;;;;27.75;19.00;;;;;18.25;49.27;101421.09;5056948;28;45463;-78
2022/09/23 08:54:42;;;;;;;;;25.00;17.75;;;;;18.29;48.15;101415.59;5057169;28;45443;-78
2022/09/23 08:57:21;;;;;;;;;24.50;19.75;;;;;18.28;47.67;101423.59;5074480;28;68664;-79
2022/09/23 08:59:48;;;;;;;;;27.50;21.75;;;;;18.30;47.98;101425.22;5057306;28;45472;-79
2022/09/23 09:02:18;;;;;;;;;20.50;15.25;;;;;18.42;48.48;101421.09;5074823;28;45432;-79
2022/09/23 09:04:45;;;;;;;;;27.00;23.25;;;;;18.53;48.19;101418.75;5067882;28;45660;-79
2022/09/23 09:07:15;;;;;;;;;27.75;20.00;;;;;18.66;46.75;101416.34;5055286;28;45375;-78
2022/09/23 09:09:47;;;;;;;;;24.75;18.00;;;;;18.65;45.95;101411.16;5036787;28;45657;-78
2022/09/23 09:12:19;;;;;;;;;19.00;18.00;;;;;18.63;45.46;101411.25;5053289;28;45917;-78
2022/09/23 09:15:06;;;;;;;;;19.75;16.25;;;;;18.66;46.80;101415.50;5057065;28;45392;-78
2022/09/23 09:17:44;;;;;;;;;15.50;14.00;;;;;18.77;45.65;101416.63;5072687;28;45516;-78
2022/09/23 09:20:33;;;;;;;;;18.75;16.00;;;;;18.89;45.79;101411.69;5074952;28;46264;-78
2022/09/23 09:22:59;;;;;;;;;20.25;15.75;;;;;18.98;45.60;101410.31;5074707;28;45428;-79
2022/09/23 09:25:32;;;;;;;;;16.00;12.75;;;;;19.08;45.20;101407.13;5074785;28;45504;-80
2022/09/23 09:27:58;;;;;;;;;18.25;16.00;;;;;19.19;45.09;101408.34;5073963;28;45533;-79
2022/09/23 09:30:24;;;;;;;;;14.75;12.75;;;;;19.26;44.26;101405.28;5054732;28;68337;-80
2022/09/23 09:32:58;;;;;;;;;18.00;14.25;;;;;19.34;44.22;101402.22;5075048;28;45440;-79
2022/09/23 09:35:32;;;;;;;;;15.25;13.00;;;;;19.46;45.25;101409.44;5074393;27;45325;-79
2022/09/23 09:37:57;;;;;;;;;14.50;12.00;;;;;19.60;43.87;101400.75;5045937;28;45381;-79
2022/09/23 09:40:24;;;;;;;;;16.25;12.00;;;;;19.71;43.96;101408.06;5056506;28;47588;-80
2022/09/23 09:42:49;;;;;;;;;19.75;13.50;;;;;19.80;43.84;101398.78;5057050;28;45357;-79
2022/09/23 09:45:27;;;;;;;;;15.75;11.75;;;;;19.86;43.66;101395.81;5075286;28;45466;-80
2022/09/23 09:48:01;;;;;;;;;16.50;11.75;;;;;19.90;42.81;101392.03;5075248;28;45391;-79
2022/09/23 09:50:50;;;;;;;;;10.50;8.25;;;;;19.92;42.63;101395.44;5074734;28;46494;-79
2022/09/23 09:53:16;;;;;;;;;10.25;8.50;;;;;19.97;42.28;101405.75;5056949;28;45725;-79
2022/09/23 09:55:41;;;;;;;;;10.00;9.00;;;;;19.98;41.54;101403.00;5075636;28;45337;-80
2022/09/23 09:58:12;;;;;;;;;10.50;10.25;;;;;19.95;41.65;101397.91;5077720;28;68144;-81
2022/09/23 10:00:44;;;;;;;;;12.75;10.00;;;;;19.95;41.43;101400.56;5060372;28;46411;-81
2022/09/23 10:03:12;;;;;;;;;8.25;6.00;;;;;19.97;41.44;101403.13;5078465;28;45819;-80
2022/09/23 10:05:46;;;;;;;;;12.00;6.00;;;;;19.96;40.02;101398.75;5078468;28;45431;-80
2022/09/23 10:08:21;;;;;;;;;7.25;6.25;;;;;19.87;40.23;101401.00;5077903;28;45557;-81
2022/09/23 10:11:15;;;;;;;;;13.00;9.00;;;;;19.88;40.86;101400.06;5077973;27;47179;-81
2022/09/23 10:14:00;;;;;;;;;17.75;13.50;;;;;19.89;40.44;101392.97;5043558;28;45981;-81
2022/09/23 10:16:30;;;;;;;;;11.00;9.00;;;;;20.01;40.83;101397.56;5077286;28;45355;-81
2022/09/23 10:18:56;;;;;;;;;7.25;6.00;;;;;20.19;40.33;101394.75;5035905;28;45614;-81
2022/09/23 10:21:33;;;;;;;;;9.75;8.50;;;;;20.29;40.40;101390.66;5045618;28;45524;-80
2022/09/23 10:24:00;;;;;;;;;12.00;10.25;;;;;20.41;40.06;101387.28;5070740;28;45442;-80
2022/09/23 10:26:31;;;;;;;;;9.25;9.00;;;;;20.48;39.75;101382.47;5059870;28;45514;-81
2022/09/23 10:28:59;;;;;;;;;8.50;7.00;;;;;20.53;40.08;101371.63;5060297;28;45548;-80
2022/09/23 10:31:31;;;;;;;;;7.00;6.00;;;;;20.61;39.28;101380.78;5059985;28;45415;-81
2022/09/23 10:34:19;;;;;;;;;9.50;7.00;;;;;20.79;39.71;101377.97;5077707;28;45382;-80
2022/09/23 10:36:53;;;;;;;;;9.00;7.25;;;;;20.93;39.00;101375.34;5076359;28;45333;-80
2022/09/23 10:48:10;;;;;;;;;6.75;6.50;;;;;21.49;39.17;101369.19;5077737;28;45348;-80
2022/09/23 10:50:43;;;;;;;;;6.50;6.50;;;;;21.62;38.38;101367.47;5077282;27;45368;-81
2022/09/23 10:53:35;;;;;;;;;9.00;7.00;;;;;21.83;38.61;101365.19;5059452;28;45501;-80
2022/09/23 10:56:17;;;;;;;;;9.50;6.25;;;;;22.09;38.33;101368.72;5059459;28;45480;-82
2022/09/23 10:59:16;;;;;;;;;9.50;7.00;;;;;22.26;37.18;101364.97;5059764;27;45332;-81
2022/09/23 11:02:06;;;;;;;;;8.00;8.00;;;;;22.30;36.19;101362.94;5060308;28;45532;-81
2022/09/23 11:05:06;;;;;;;;;6.25;6.00;;;;;22.29;35.23;101356.81;5059839;28;45564;-82
2022/09/23 11:07:39;;;;;;;;;9.50;8.00;;;;;22.31;35.54;101348.75;5074598;27;45508;-80
2022/09/23 11:10:12;;;;;;;;;7.50;7.50;;;;;22.31;35.68;101348.75;5060102;28;45377;-82
2022/09/23 11:12:55;;;;;;;;;8.50;7.50;;;;;22.34;35.59;101351.16;5060283;28;45556;-81
2022/09/23 11:15:31;;;;;;;;;6.75;5.50;;;;;22.33;36.18;101345.03;5077146;28;46643;-80
2022/09/23 11:18:17;;;;;;;;;8.50;7.00;;;;;22.29;35.64;101347.97;5064066;28;45762;-81
2022/09/23 11:20:56;;;;;;;;;8.50;5.75;;;;;22.25;35.74;101336.72;5063294;28;45380;-79
2022/09/23 11:24:00;;;;;;;;;7.00;6.50;;;;;22.23;36.06;101333.31;5053386;28;45877;-81
2022/09/23 11:26:42;;;;;;;;;7.25;6.25;;;;;22.30;35.46;101333.78;4993534;28;48087;-81
2022/09/23 11:29:07;;;;;;;;;9.75;7.50;;;;;22.35;34.72;101335.16;4993997;28;45869;-81
2022/09/23 11:31:41;;;;;;;;;6.67;6.33;;;;;22.40;35.04;101325.09;4994357;28;45352;-82
2022/09/23 11:34:46;;;;;;;;;7.00;7.00;;;;;22.56;34.98;101322.19;5008425;28;45339;-80
2022/09/23 11:37:18;;;;;;;;;7.50;6.50;;;;;22.87;34.68;101324.50;4995231;28;46201;-82
2022/09/23 11:39:59;;;;;;;;;5.50;5.00;;;;;23.21;34.41;101322.06;4978138;28;45825;-81
2022/09/23 11:42:28;;;;;;;;;5.75;5.00;;;;;23.47;34.32;101315.69;4994152;28;45346;-82